sensor_id;sensor_type;location;lat;lon;timestamp;P1;durP1;ratioP1;P2;durP2;ratioP2
15451;SDS011;7827;53.594;9.938;2022-09-01T00:00:24;1.70;;;1.60;;
15451;SDS011;7827;53.594;9.938;2022-09-01T00:02:54;1.52;;;1.42;;
15451;SDS011;7827;53.594;9.938;2022-09-01T00:05:23;2.47;;;1.80;;
15451;SDS011;7827;53.594;9.938;2022-09-01T00:07:51;1.50;;;1.40;;
15451;SDS011;7827;53.594;9.938;2022-09-01T00:10:20;4.68;;;1.67;;
15451;SDS011;7827;53.594;9.938;2022-09-01T00:12:49;2.33;;;1.70;;
15451;SDS011;7827;53.594;9.938;2022-09-01T00:15:17;1.85;;;1.63;;
15451;SDS011;7827;53.594;9.938;2022-09-01T00:17:46;2.47;;;1.80;;
15451;SDS011;7827;53.594;9.938;2022-09-01T00:20:14;2.63;;;1.85;;
15451;SDS011;7827;53.594;9.938;2022-09-01T00:22:46;3.65;;;1.77;;
15451;SDS011;7827;53.594;9.938;2022-09-01T00:25:15;2.88;;;1.85;;
15451;SDS011;7827;53.594;9.938;2022-09-01T00:27:47;1.95;;;1.85;;
15451;SDS011;7827;53.594;9.938;2022-09-01T00:30:16;2.25;;;1.80;;
15451;SDS011;7827;53.594;9.938;2022-09-01T00:32:44;5.72;;;1.85;;
15451;SDS011;7827;53.594;9.938;2022-09-01T00:35:13;1.60;;;1.50;;
15451;SDS011;7827;53.594;9.938;2022-09-01T00:37:44;1.95;;;1.80;;
15451;SDS011;7827;53.594;9.938;2022-09-01T00:40:13;2.45;;;2.00;;
15451;SDS011;7827;53.594;9.938;2022-09-01T00:42:43;1.90;;;1.80;;
15451;SDS011;7827;53.594;9.938;2022-09-01T00:45:15;1.88;;;1.70;;
15451;SDS011;7827;53.594;9.938;2022-09-01T00:47:48;1.80;;;1.70;;
15451;SDS011;7827;53.594;9.938;2022-09-01T00:50:17;1.60;;;1.50;;
15451;SDS011;7827;53.594;9.938;2022-09-01T00:52:47;2.33;;;1.80;;
15451;SDS011;7827;53.594;9.938;2022-09-01T00:55:20;4.18;;;1.90;;
15451;SDS011;7827;53.594;9.938;2022-09-01T00:57:53;2.38;;;1.90;;
15451;SDS011;7827;53.594;9.938;2022-09-01T01:00:24;1.92;;;1.75;;
15451;SDS011;7827;53.594;9.938;2022-09-01T01:02:55;6.22;;;2.08;;
15451;SDS011;7827;53.594;9.938;2022-09-01T01:05:25;4.15;;;2.17;;
15451;SDS011;7827;53.594;9.938;2022-09-01T01:08:00;2.53;;;1.90;;
15451;SDS011;7827;53.594;9.938;2022-09-01T01:10:31;1.90;;;1.75;;
15451;SDS011;7827;53.594;9.938;2022-09-01T01:13:05;2.47;;;2.00;;
15451;SDS011;7827;53.594;9.938;2022-09-01T01:15:42;2.08;;;1.88;;
15451;SDS011;7827;53.594;9.938;2022-09-01T01:18:12;2.80;;;1.90;;
15451;SDS011;7827;53.594;9.938;2022-09-01T01:20:54;2.70;;;2.05;;
15451;SDS011;7827;53.594;9.938;2022-09-01T01:23:49;2.28;;;1.95;;
15451;SDS011;7827;53.594;9.938;2022-09-01T01:26:27;2.33;;;1.83;;
15451;SDS011;7827;53.594;9.938;2022-09-01T01:28:56;1.77;;;1.67;;
15451;SDS011;7827;53.594;9.938;2022-09-01T01:31:27;2.90;;;1.92;;
15451;SDS011;7827;53.594;9.938;2022-09-01T01:33:56;2.47;;;2.28;;
15451;SDS011;7827;53.594;9.938;2022-09-01T01:36:27;3.40;;;2.10;;
15451;SDS011;7827;53.594;9.938;2022-09-01T01:39:01;2.47;;;2.10;;
15451;SDS011;7827;53.594;9.938;2022-09-01T01:41:36;2.10;;;1.90;;
15451;SDS011;7827;53.594;9.938;2022-09-01T01:44:11;2.13;;;1.92;;
15451;SDS011;7827;53.594;9.938;2022-09-01T01:46:42;5.05;;;2.20;;
15451;SDS011;7827;53.594;9.938;2022-09-01T01:49:16;2.28;;;2.08;;
15451;SDS011;7827;53.594;9.938;2022-09-01T01:51:50;3.95;;;2.20;;
15451;SDS011;7827;53.594;9.938;2022-09-01T01:54:24;2.50;;;2.30;;
15451;SDS011;7827;53.594;9.938;2022-09-01T01:56:59;2.33;;;2.13;;
15451;SDS011;7827;53.594;9.938;2022-09-01T01:59:29;2.42;;;2.00;;
15451;SDS011;7827;53.594;9.938;2022-09-01T02:01:58;2.25;;;2.03;;
15451;SDS011;7827;53.594;9.938;2022-09-01T02:04:30;2.28;;;2.03;;
15451;SDS011;7827;53.594;9.938;2022-09-01T02:07:04;2.38;;;2.00;;
15451;SDS011;7827;53.594;9.938;2022-09-01T02:09:37;2.20;;;2.00;;
15451;SDS011;7827;53.594;9.938;2022-09-01T02:12:10;2.80;;;2.10;;
15451;SDS011;7827;53.594;9.938;2022-09-01T02:14:41;2.78;;;2.50;;
15451;SDS011;7827;53.594;9.938;2022-09-01T02:17:09;2.58;;;2.38;;
15451;SDS011;7827;53.594;9.938;2022-09-01T02:19:38;3.85;;;2.58;;
15451;SDS011;7827;53.594;9.938;2022-09-01T02:22:08;2.58;;;2.38;;
15451;SDS011;7827;53.594;9.938;2022-09-01T02:24:37;2.25;;;2.05;;
15451;SDS011;7827;53.594;9.938;2022-09-01T02:27:13;2.35;;;2.15;;
15451;SDS011;7827;53.594;9.938;2022-09-01T02:29:52;2.50;;;2.30;;
15451;SDS011;7827;53.594;9.938;2022-09-01T02:32:21;4.15;;;2.70;;
15451;SDS011;7827;53.594;9.938;2022-09-01T02:34:49;3.53;;;2.40;;
15451;SDS011;7827;53.594;9.938;2022-09-01T02:37:26;3.40;;;2.63;;
15451;SDS011;7827;53.594;9.938;2022-09-01T02:39:55;2.63;;;2.42;;
15451;SDS011;7827;53.594;9.938;2022-09-01T02:42:25;2.58;;;2.20;;
15451;SDS011;7827;53.594;9.938;2022-09-01T02:44:55;2.40;;;2.20;;
15451;SDS011;7827;53.594;9.938;2022-09-01T02:47:24;2.72;;;2.53;;
15451;SDS011;7827;53.594;9.938;2022-09-01T02:49:55;3.13;;;2.40;;
15451;SDS011;7827;53.594;9.938;2022-09-01T02:52:25;5.90;;;2.45;;
15451;SDS011;7827;53.594;9.938;2022-09-01T02:54:55;3.55;;;2.65;;
15451;SDS011;7827;53.594;9.938;2022-09-01T02:57:26;5.18;;;2.70;;
15451;SDS011;7827;53.594;9.938;2022-09-01T02:59:54;2.28;;;2.08;;
15451;SDS011;7827;53.594;9.938;2022-09-01T03:02:25;2.40;;;2.20;;
15451;SDS011;7827;53.594;9.938;2022-09-01T03:04:54;3.45;;;2.35;;
15451;SDS011;7827;53.594;9.938;2022-09-01T03:07:23;2.67;;;2.47;;
15451;SDS011;7827;53.594;9.938;2022-09-01T03:09:53;5.20;;;2.90;;
15451;SDS011;7827;53.594;9.938;2022-09-01T03:12:21;2.75;;;2.40;;
15451;SDS011;7827;53.594;9.938;2022-09-01T03:14:51;3.42;;;2.25;;
15451;SDS011;7827;53.594;9.938;2022-09-01T03:17:19;6.43;;;2.38;;
15451;SDS011;7827;53.594;9.938;2022-09-01T03:19:47;2.65;;;2.45;;
15451;SDS011;7827;53.594;9.938;2022-09-01T03:22:17;3.17;;;2.55;;
15451;SDS011;7827;53.594;9.938;2022-09-01T03:24:46;3.38;;;2.38;;
15451;SDS011;7827;53.594;9.938;2022-09-01T03:27:14;3.38;;;2.63;;
15451;SDS011;7827;53.594;9.938;2022-09-01T03:29:43;2.63;;;2.42;;
15451;SDS011;7827;53.594;9.938;2022-09-01T03:32:12;2.50;;;2.30;;
15451;SDS011;7827;53.594;9.938;2022-09-01T03:34:41;3.20;;;2.90;;
15451;SDS011;7827;53.594;9.938;2022-09-01T03:37:09;3.20;;;2.83;;
15451;SDS011;7827;53.594;9.938;2022-09-01T03:39:38;4.05;;;2.88;;
15451;SDS011;7827;53.594;9.938;2022-09-01T03:42:06;2.63;;;2.42;;
15451;SDS011;7827;53.594;9.938;2022-09-01T03:44:38;2.97;;;2.65;;
15451;SDS011;7827;53.594;9.938;2022-09-01T03:47:14;3.80;;;3.00;;
15451;SDS011;7827;53.594;9.938;2022-09-01T03:49:43;3.80;;;2.65;;
15451;SDS011;7827;53.594;9.938;2022-09-01T03:52:11;2.88;;;2.67;;
15451;SDS011;7827;53.594;9.938;2022-09-01T03:54:40;5.43;;;2.58;;
15451;SDS011;7827;53.594;9.938;2022-09-01T03:57:09;10.48;;;3.30;;
15451;SDS011;7827;53.594;9.938;2022-09-01T03:59:39;3.05;;;2.80;;
15451;SDS011;7827;53.594;9.938;2022-09-01T04:02:10;3.10;;;2.78;;
15451;SDS011;7827;53.594;9.938;2022-09-01T04:04:41;4.78;;;2.88;;
15451;SDS011;7827;53.594;9.938;2022-09-01T04:07:10;2.67;;;2.47;;
15451;SDS011;7827;53.594;9.938;2022-09-01T04:09:45;3.65;;;3.03;;
15451;SDS011;7827;53.594;9.938;2022-09-01T04:12:13;3.42;;;2.63;;
15451;SDS011;7827;53.594;9.938;2022-09-01T04:14:46;3.75;;;2.97;;
15451;SDS011;7827;53.594;9.938;2022-09-01T04:17:14;3.83;;;2.88;;
15451;SDS011;7827;53.594;9.938;2022-09-01T04:20:03;3.72;;;3.00;;
15451;SDS011;7827;53.594;9.938;2022-09-01T04:22:34;4.07;;;3.17;;
15451;SDS011;7827;53.594;9.938;2022-09-01T04:25:03;5.07;;;3.17;;
15451;SDS011;7827;53.594;9.938;2022-09-01T04:27:32;6.22;;;3.28;;
15451;SDS011;7827;53.594;9.938;2022-09-01T04:30:07;4.43;;;2.90;;
15451;SDS011;7827;53.594;9.938;2022-09-01T04:32:41;3.40;;;3.10;;
15451;SDS011;7827;53.594;9.938;2022-09-01T04:35:13;3.90;;;3.45;;
15451;SDS011;7827;53.594;9.938;2022-09-01T04:37:43;7.40;;;3.38;;
15451;SDS011;7827;53.594;9.938;2022-09-01T04:40:13;5.05;;;3.13;;
15451;SDS011;7827;53.594;9.938;2022-09-01T04:42:44;6.85;;;3.72;;
15451;SDS011;7827;53.594;9.938;2022-09-01T04:45:13;3.40;;;3.10;;
15451;SDS011;7827;53.594;9.938;2022-09-01T04:47:46;4.45;;;3.60;;
15451;SDS011;7827;53.594;9.938;2022-09-01T04:50:17;6.57;;;3.38;;
15451;SDS011;7827;53.594;9.938;2022-09-01T04:53:05;3.95;;;2.70;;
15451;SDS011;7827;53.594;9.938;2022-09-01T04:55:40;4.88;;;3.15;;
15451;SDS011;7827;53.594;9.938;2022-09-01T04:58:10;3.75;;;2.90;;
15451;SDS011;7827;53.594;9.938;2022-09-01T05:00:43;4.45;;;3.20;;
15451;SDS011;7827;53.594;9.938;2022-09-01T05:03:15;6.07;;;2.92;;
15451;SDS011;7827;53.594;9.938;2022-09-01T05:05:54;3.85;;;3.00;;
15451;SDS011;7827;53.594;9.938;2022-09-01T05:08:23;9.05;;;3.30;;
15451;SDS011;7827;53.594;9.938;2022-09-01T05:10:54;5.00;;;2.83;;
15451;SDS011;7827;53.594;9.938;2022-09-01T05:13:34;3.70;;;2.90;;
15451;SDS011;7827;53.594;9.938;2022-09-01T05:16:05;12.02;;;3.30;;
15451;SDS011;7827;53.594;9.938;2022-09-01T05:18:39;5.20;;;3.00;;
15451;SDS011;7827;53.594;9.938;2022-09-01T05:21:15;3.70;;;2.92;;
15451;SDS011;7827;53.594;9.938;2022-09-01T05:23:47;5.70;;;3.25;;
15451;SDS011;7827;53.594;9.938;2022-09-01T05:26:18;5.05;;;3.08;;
15451;SDS011;7827;53.594;9.938;2022-09-01T05:28:48;5.43;;;2.90;;
15451;SDS011;7827;53.594;9.938;2022-09-01T05:31:19;4.45;;;3.05;;
15451;SDS011;7827;53.594;9.938;2022-09-01T05:33:48;6.85;;;2.83;;
15451;SDS011;7827;53.594;9.938;2022-09-01T05:36:21;6.85;;;3.40;;
15451;SDS011;7827;53.594;9.938;2022-09-01T05:38:52;9.88;;;3.70;;
15451;SDS011;7827;53.594;9.938;2022-09-01T05:41:20;6.80;;;3.25;;
15451;SDS011;7827;53.594;9.938;2022-09-01T05:43:50;5.75;;;2.90;;
15451;SDS011;7827;53.594;9.938;2022-09-01T05:46:25;4.78;;;3.08;;
15451;SDS011;7827;53.594;9.938;2022-09-01T05:48:56;4.15;;;2.88;;
15451;SDS011;7827;53.594;9.938;2022-09-01T05:51:27;3.65;;;3.00;;
15451;SDS011;7827;53.594;9.938;2022-09-01T05:54:11;3.50;;;3.15;;
15451;SDS011;7827;53.594;9.938;2022-09-01T05:56:41;5.93;;;3.28;;
15451;SDS011;7827;53.594;9.938;2022-09-01T05:59:14;5.60;;;3.08;;
15451;SDS011;7827;53.594;9.938;2022-09-01T06:01:56;7.40;;;3.25;;
15451;SDS011;7827;53.594;9.938;2022-09-01T06:04:25;9.73;;;3.65;;
15451;SDS011;7827;53.594;9.938;2022-09-01T06:07:02;8.25;;;3.30;;
15451;SDS011;7827;53.594;9.938;2022-09-01T06:09:43;13.05;;;3.42;;
15451;SDS011;7827;53.594;9.938;2022-09-01T06:12:16;9.90;;;3.22;;
15451;SDS011;7827;53.594;9.938;2022-09-01T06:14:49;7.70;;;3.03;;
15451;SDS011;7827;53.594;9.938;2022-09-01T06:17:20;7.68;;;3.65;;
15451;SDS011;7827;53.594;9.938;2022-09-01T06:19:51;8.85;;;3.10;;
15451;SDS011;7827;53.594;9.938;2022-09-01T06:22:22;2.85;;;2.45;;
15451;SDS011;7827;53.594;9.938;2022-09-01T06:24:53;7.38;;;3.22;;
15451;SDS011;7827;53.594;9.938;2022-09-01T06:27:32;4.63;;;2.60;;
15451;SDS011;7827;53.594;9.938;2022-09-01T06:30:04;3.22;;;2.65;;
15451;SDS011;7827;53.594;9.938;2022-09-01T06:32:43;8.82;;;2.50;;
15451;SDS011;7827;53.594;9.938;2022-09-01T06:35:12;5.05;;;2.17;;
15451;SDS011;7827;53.594;9.938;2022-09-01T06:37:42;6.30;;;2.15;;
15451;SDS011;7827;53.594;9.938;2022-09-01T06:40:28;6.68;;;2.40;;
15451;SDS011;7827;53.594;9.938;2022-09-01T06:42:56;3.97;;;1.85;;
15451;SDS011;7827;53.594;9.938;2022-09-01T06:45:25;3.30;;;2.30;;
15451;SDS011;7827;53.594;9.938;2022-09-01T06:47:53;4.22;;;2.03;;
15451;SDS011;7827;53.594;9.938;2022-09-01T06:50:26;7.57;;;2.40;;
15451;SDS011;7827;53.594;9.938;2022-09-01T06:53:16;2.53;;;1.80;;
15451;SDS011;7827;53.594;9.938;2022-09-01T06:56:06;4.32;;;2.35;;
15451;SDS011;7827;53.594;9.938;2022-09-01T06:58:39;4.65;;;1.75;;
15451;SDS011;7827;53.594;9.938;2022-09-01T07:01:15;3.17;;;1.92;;
15451;SDS011;7827;53.594;9.938;2022-09-01T07:03:47;3.65;;;1.80;;
15451;SDS011;7827;53.594;9.938;2022-09-01T07:06:29;6.07;;;1.70;;
15451;SDS011;7827;53.594;9.938;2022-09-01T07:09:36;3.00;;;1.50;;
15451;SDS011;7827;53.594;9.938;2022-09-01T07:12:24;3.78;;;1.63;;
15451;SDS011;7827;53.594;9.938;2022-09-01T07:14:54;2.50;;;1.60;;
15451;SDS011;7827;53.594;9.938;2022-09-01T07:17:45;4.18;;;2.13;;
15451;SDS011;7827;53.594;9.938;2022-09-01T07:20:17;3.28;;;1.52;;
15451;SDS011;7827;53.594;9.938;2022-09-01T07:22:50;4.80;;;1.50;;
15451;SDS011;7827;53.594;9.938;2022-09-01T07:25:38;3.33;;;1.65;;
15451;SDS011;7827;53.594;9.938;2022-09-01T07:28:31;4.18;;;1.45;;
15451;SDS011;7827;53.594;9.938;2022-09-01T07:31:03;1.88;;;1.30;;
15451;SDS011;7827;53.594;9.938;2022-09-01T07:33:55;2.30;;;1.50;;
15451;SDS011;7827;53.594;9.938;2022-09-01T07:36:47;4.78;;;1.50;;
15451;SDS011;7827;53.594;9.938;2022-09-01T07:39:37;1.65;;;1.27;;
15451;SDS011;7827;53.594;9.938;2022-09-01T07:42:43;4.93;;;1.40;;
15451;SDS011;7827;53.594;9.938;2022-09-01T07:46:06;2.88;;;1.48;;
15451;SDS011;7827;53.594;9.938;2022-09-01T07:48:54;3.72;;;1.33;;
15451;SDS011;7827;53.594;9.938;2022-09-01T07:51:44;3.10;;;1.20;;
15451;SDS011;7827;53.594;9.938;2022-09-01T07:54:18;2.50;;;1.30;;
15451;SDS011;7827;53.594;9.938;2022-09-01T07:56:47;2.58;;;1.30;;
15451;SDS011;7827;53.594;9.938;2022-09-01T07:59:17;5.05;;;1.30;;
15451;SDS011;7827;53.594;9.938;2022-09-01T08:02:06;2.15;;;1.40;;
15451;SDS011;7827;53.594;9.938;2022-09-01T08:04:35;6.45;;;1.27;;
15451;SDS011;7827;53.594;9.938;2022-09-01T08:07:05;3.08;;;1.23;;
15451;SDS011;7827;53.594;9.938;2022-09-01T08:09:41;1.55;;;1.25;;
15451;SDS011;7827;53.594;9.938;2022-09-01T08:12:11;2.72;;;1.63;;
15451;SDS011;7827;53.594;9.938;2022-09-01T08:14:55;2.38;;;1.30;;
15451;SDS011;7827;53.594;9.938;2022-09-01T08:17:44;2.33;;;1.08;;
15451;SDS011;7827;53.594;9.938;2022-09-01T08:20:22;2.42;;;1.20;;
15451;SDS011;7827;53.594;9.938;2022-09-01T08:22:53;2.15;;;1.23;;
15451;SDS011;7827;53.594;9.938;2022-09-01T08:25:28;2.53;;;1.10;;
15451;SDS011;7827;53.594;9.938;2022-09-01T08:27:57;1.23;;;1.10;;
15451;SDS011;7827;53.594;9.938;2022-09-01T08:30:28;4.63;;;1.25;;
15451;SDS011;7827;53.594;9.938;2022-09-01T08:32:58;2.55;;;1.10;;
15451;SDS011;7827;53.594;9.938;2022-09-01T08:35:36;1.58;;;0.90;;
15451;SDS011;7827;53.594;9.938;2022-09-01T08:38:06;1.98;;;1.05;;
15451;SDS011;7827;53.594;9.938;2022-09-01T08:40:35;1.20;;;1.10;;
15451;SDS011;7827;53.594;9.938;2022-09-01T08:43:07;1.10;;;1.00;;
15451;SDS011;7827;53.594;9.938;2022-09-01T08:45:46;1.58;;;1.20;;
15451;SDS011;7827;53.594;9.938;2022-09-01T08:48:20;0.90;;;0.90;;
15451;SDS011;7827;53.594;9.938;2022-09-01T08:51:13;0.90;;;0.90;;
15451;SDS011;7827;53.594;9.938;2022-09-01T08:53:58;1.40;;;0.90;;
15451;SDS011;7827;53.594;9.938;2022-09-01T08:56:31;1.50;;;1.10;;
15451;SDS011;7827;53.594;9.938;2022-09-01T08:59:02;2.67;;;1.00;;
15451;SDS011;7827;53.594;9.938;2022-09-01T09:01:54;1.63;;;1.10;;
15451;SDS011;7827;53.594;9.938;2022-09-01T09:04:31;1.20;;;1.10;;
15451;SDS011;7827;53.594;9.938;2022-09-01T09:07:17;3.40;;;1.10;;
15451;SDS011;7827;53.594;9.938;2022-09-01T09:09:56;1.23;;;1.00;;
15451;SDS011;7827;53.594;9.938;2022-09-01T09:12:35;2.63;;;1.17;;
15451;SDS011;7827;53.594;9.938;2022-09-01T09:15:19;0.98;;;0.85;;
15451;SDS011;7827;53.594;9.938;2022-09-01T09:17:54;1.50;;;0.98;;
15451;SDS011;7827;53.594;9.938;2022-09-01T09:20:26;1.35;;;1.20;;
15451;SDS011;7827;53.594;9.938;2022-09-01T09:22:55;0.95;;;0.95;;
15451;SDS011;7827;53.594;9.938;2022-09-01T09:25:25;2.05;;;1.00;;
15451;SDS011;7827;53.594;9.938;2022-09-01T09:27:55;1.30;;;1.20;;
15451;SDS011;7827;53.594;9.938;2022-09-01T09:30:28;1.10;;;1.00;;
15451;SDS011;7827;53.594;9.938;2022-09-01T09:32:59;1.55;;;1.00;;
15451;SDS011;7827;53.594;9.938;2022-09-01T09:35:50;0.90;;;0.90;;
15451;SDS011;7827;53.594;9.938;2022-09-01T09:38:21;3.17;;;1.10;;
15451;SDS011;7827;53.594;9.938;2022-09-01T09:40:58;1.88;;;1.42;;
15451;SDS011;7827;53.594;9.938;2022-09-01T09:43:45;2.65;;;1.10;;
15451;SDS011;7827;53.594;9.938;2022-09-01T09:46:19;1.77;;;1.20;;
15451;SDS011;7827;53.594;9.938;2022-09-01T09:51:36;2.50;;;1.10;;
15451;SDS011;7827;53.594;9.938;2022-09-01T09:54:09;1.83;;;1.10;;
15451;SDS011;7827;53.594;9.938;2022-09-01T09:56:39;1.45;;;1.00;;
15451;SDS011;7827;53.594;9.938;2022-09-01T09:59:21;1.48;;;1.20;;
15451;SDS011;7827;53.594;9.938;2022-09-01T10:02:16;2.40;;;0.98;;
15451;SDS011;7827;53.594;9.938;2022-09-01T10:04:55;3.33;;;1.05;;
15451;SDS011;7827;53.594;9.938;2022-09-01T10:07:26;1.73;;;1.00;;
15451;SDS011;7827;53.594;9.938;2022-09-01T10:09:58;1.60;;;0.90;;
15451;SDS011;7827;53.594;9.938;2022-09-01T10:12:27;1.08;;;0.93;;
15451;SDS011;7827;53.594;9.938;2022-09-01T10:14:59;3.38;;;1.08;;
15451;SDS011;7827;53.594;9.938;2022-09-01T10:17:38;1.65;;;1.02;;
15451;SDS011;7827;53.594;9.938;2022-09-01T10:20:12;3.33;;;1.10;;
15451;SDS011;7827;53.594;9.938;2022-09-01T10:22:47;1.80;;;1.00;;
15451;SDS011;7827;53.594;9.938;2022-09-01T10:25:16;3.80;;;1.10;;
15451;SDS011;7827;53.594;9.938;2022-09-01T10:27:46;0.90;;;0.80;;
15451;SDS011;7827;53.594;9.938;2022-09-01T10:30:20;1.52;;;1.02;;
15451;SDS011;7827;53.594;9.938;2022-09-01T10:32:49;2.10;;;1.15;;
15451;SDS011;7827;53.594;9.938;2022-09-01T10:35:24;1.17;;;1.08;;
15451;SDS011;7827;53.594;9.938;2022-09-01T10:37:56;1.33;;;1.00;;
15451;SDS011;7827;53.594;9.938;2022-09-01T10:40:39;1.33;;;1.15;;
15451;SDS011;7827;53.594;9.938;2022-09-01T10:43:22;1.20;;;1.10;;
15451;SDS011;7827;53.594;9.938;2022-09-01T10:49:20;0.90;;;0.90;;
15451;SDS011;7827;53.594;9.938;2022-09-01T10:52:18;1.00;;;0.90;;
15451;SDS011;7827;53.594;9.938;2022-09-01T10:55:24;0.98;;;0.90;;
15451;SDS011;7827;53.594;9.938;2022-09-01T10:58:00;1.75;;;1.15;;
15451;SDS011;7827;53.594;9.938;2022-09-01T11:01:02;1.70;;;1.10;;
15451;SDS011;7827;53.594;9.938;2022-09-01T11:03:54;1.40;;;1.10;;
15451;SDS011;7827;53.594;9.938;2022-09-01T11:10:05;3.70;;;1.23;;
15451;SDS011;7827;53.594;9.938;2022-09-01T11:13:13;1.25;;;0.90;;
15451;SDS011;7827;53.594;9.938;2022-09-01T11:16:24;1.15;;;1.00;;
15451;SDS011;7827;53.594;9.938;2022-09-01T11:19:19;1.00;;;0.90;;
15451;SDS011;7827;53.594;9.938;2022-09-01T11:22:02;1.92;;;1.10;;
15451;SDS011;7827;53.594;9.938;2022-09-01T11:24:46;1.63;;;0.90;;
15451;SDS011;7827;53.594;9.938;2022-09-01T11:30:33;1.52;;;0.90;;
15451;SDS011;7827;53.594;9.938;2022-09-01T11:33:17;3.47;;;1.10;;
15451;SDS011;7827;53.594;9.938;2022-09-01T11:36:06;4.60;;;1.15;;
15451;SDS011;7827;53.594;9.938;2022-09-01T11:38:42;1.95;;;1.13;;
15451;SDS011;7827;53.594;9.938;2022-09-01T11:41:24;1.00;;;0.93;;
15451;SDS011;7827;53.594;9.938;2022-09-01T11:43:57;2.20;;;1.10;;
15451;SDS011;7827;53.594;9.938;2022-09-01T11:46:28;2.33;;;1.00;;
15451;SDS011;7827;53.594;9.938;2022-09-01T11:49:01;1.50;;;1.10;;
15451;SDS011;7827;53.594;9.938;2022-09-01T11:51:43;1.75;;;1.10;;
15451;SDS011;7827;53.594;9.938;2022-09-01T11:54:13;1.40;;;1.30;;
15451;SDS011;7827;53.594;9.938;2022-09-01T11:56:44;1.17;;;0.90;;
15451;SDS011;7827;53.594;9.938;2022-09-01T11:59:12;1.55;;;1.10;;
15451;SDS011;7827;53.594;9.938;2022-09-01T12:01:40;1.17;;;1.08;;
15451;SDS011;7827;53.594;9.938;2022-09-01T12:04:18;2.13;;;1.10;;
15451;SDS011;7827;53.594;9.938;2022-09-01T12:06:55;12.63;;;1.20;;
15451;SDS011;7827;53.594;9.938;2022-09-01T12:09:30;2.13;;;1.33;;
15451;SDS011;7827;53.594;9.938;2022-09-01T12:12:01;1.93;;;1.10;;
15451;SDS011;7827;53.594;9.938;2022-09-01T12:14:32;1.85;;;1.10;;
15451;SDS011;7827;53.594;9.938;2022-09-01T12:17:20;1.73;;;1.30;;
15451;SDS011;7827;53.594;9.938;2022-09-01T12:19:48;6.32;;;1.20;;
15451;SDS011;7827;53.594;9.938;2022-09-01T12:22:17;1.63;;;1.35;;
15451;SDS011;7827;53.594;9.938;2022-09-01T12:24:47;1.15;;;1.05;;
15451;SDS011;7827;53.594;9.938;2022-09-01T12:27:19;3.78;;;1.52;;
15451;SDS011;7827;53.594;9.938;2022-09-01T12:29:48;2.00;;;1.27;;
15451;SDS011;7827;53.594;9.938;2022-09-01T12:32:17;5.40;;;1.48;;
15451;SDS011;7827;53.594;9.938;2022-09-01T12:34:46;4.70;;;1.10;;
15451;SDS011;7827;53.594;9.938;2022-09-01T12:37:29;3.25;;;1.20;;
15451;SDS011;7827;53.594;9.938;2022-09-01T12:39:57;2.15;;;1.00;;
15451;SDS011;7827;53.594;9.938;2022-09-01T12:42:28;2.45;;;1.20;;
15451;SDS011;7827;53.594;9.938;2022-09-01T12:45:09;4.70;;;1.58;;
15451;SDS011;7827;53.594;9.938;2022-09-01T12:47:45;6.18;;;1.42;;
15451;SDS011;7827;53.594;9.938;2022-09-01T12:53:22;1.38;;;1.27;;
15451;SDS011;7827;53.594;9.938;2022-09-01T12:55:57;1.23;;;1.13;;
15451;SDS011;7827;53.594;9.938;2022-09-01T12:58:29;2.38;;;1.25;;
15451;SDS011;7827;53.594;9.938;2022-09-01T13:00:59;1.73;;;1.10;;
15451;SDS011;7827;53.594;9.938;2022-09-01T13:03:33;5.28;;;1.38;;
15451;SDS011;7827;53.594;9.938;2022-09-01T13:06:02;3.80;;;1.30;;
15451;SDS011;7827;53.594;9.938;2022-09-01T13:08:30;4.75;;;1.00;;
15451;SDS011;7827;53.594;9.938;2022-09-01T13:11:03;4.88;;;1.23;;
15451;SDS011;7827;53.594;9.938;2022-09-01T13:13:34;13.07;;;1.95;;
15451;SDS011;7827;53.594;9.938;2022-09-01T13:16:02;1.73;;;1.20;;
15451;SDS011;7827;53.594;9.938;2022-09-01T13:18:35;4.28;;;1.15;;
15451;SDS011;7827;53.594;9.938;2022-09-01T13:21:24;3.45;;;1.20;;
15451;SDS011;7827;53.594;9.938;2022-09-01T13:23:52;2.38;;;1.10;;
15451;SDS011;7827;53.594;9.938;2022-09-01T13:26:21;1.52;;;1.08;;
15451;SDS011;7827;53.594;9.938;2022-09-01T13:28:50;2.90;;;1.20;;
15451;SDS011;7827;53.594;9.938;2022-09-01T13:31:19;1.15;;;1.05;;
15451;SDS011;7827;53.594;9.938;2022-09-01T13:33:56;2.33;;;1.13;;
15451;SDS011;7827;53.594;9.938;2022-09-01T13:36:45;1.13;;;1.05;;
15451;SDS011;7827;53.594;9.938;2022-09-01T13:39:18;1.20;;;1.10;;
15451;SDS011;7827;53.594;9.938;2022-09-01T13:41:46;1.30;;;1.17;;
15451;SDS011;7827;53.594;9.938;2022-09-01T13:44:16;1.27;;;0.93;;
15451;SDS011;7827;53.594;9.938;2022-09-01T13:46:44;1.30;;;1.05;;
15451;SDS011;7827;53.594;9.938;2022-09-01T13:49:33;1.20;;;1.10;;
15451;SDS011;7827;53.594;9.938;2022-09-01T13:52:21;1.58;;;1.20;;
15451;SDS011;7827;53.594;9.938;2022-09-01T13:54:49;1.33;;;1.23;;
15451;SDS011;7827;53.594;9.938;2022-09-01T13:57:17;2.17;;;1.20;;
15451;SDS011;7827;53.594;9.938;2022-09-01T13:59:47;1.52;;;1.20;;
15451;SDS011;7827;53.594;9.938;2022-09-01T14:02:15;1.85;;;1.15;;
15451;SDS011;7827;53.594;9.938;2022-09-01T14:04:44;1.70;;;1.20;;
15451;SDS011;7827;53.594;9.938;2022-09-01T14:07:12;1.40;;;1.23;;
15451;SDS011;7827;53.594;9.938;2022-09-01T14:09:41;3.03;;;1.23;;
15451;SDS011;7827;53.594;9.938;2022-09-01T14:12:09;2.85;;;1.20;;
15451;SDS011;7827;53.594;9.938;2022-09-01T14:14:37;1.20;;;1.10;;
15451;SDS011;7827;53.594;9.938;2022-09-01T14:17:27;2.35;;;1.13;;
15451;SDS011;7827;53.594;9.938;2022-09-01T14:19:55;1.40;;;1.25;;
15451;SDS011;7827;53.594;9.938;2022-09-01T14:22:23;1.67;;;1.58;;
15451;SDS011;7827;53.594;9.938;2022-09-01T14:24:51;3.20;;;1.08;;
15451;SDS011;7827;53.594;9.938;2022-09-01T14:27:20;1.98;;;1.00;;
15451;SDS011;7827;53.594;9.938;2022-09-01T14:29:48;1.20;;;1.00;;
15451;SDS011;7827;53.594;9.938;2022-09-01T14:32:20;1.20;;;1.10;;
15451;SDS011;7827;53.594;9.938;2022-09-01T14:34:53;1.92;;;1.20;;
15451;SDS011;7827;53.594;9.938;2022-09-01T14:37:22;4.75;;;1.40;;
15451;SDS011;7827;53.594;9.938;2022-09-01T14:39:51;1.67;;;1.00;;
15451;SDS011;7827;53.594;9.938;2022-09-01T14:42:21;2.90;;;1.10;;
15451;SDS011;7827;53.594;9.938;2022-09-01T14:44:51;3.95;;;1.23;;
15451;SDS011;7827;53.594;9.938;2022-09-01T14:47:19;1.77;;;1.20;;
15451;SDS011;7827;53.594;9.938;2022-09-01T14:49:50;1.85;;;1.08;;
15451;SDS011;7827;53.594;9.938;2022-09-01T14:52:21;1.20;;;1.10;;
15451;SDS011;7827;53.594;9.938;2022-09-01T14:54:51;2.55;;;1.10;;
15451;SDS011;7827;53.594;9.938;2022-09-01T14:57:19;1.05;;;1.00;;
15451;SDS011;7827;53.594;9.938;2022-09-01T15:00:03;2.35;;;1.13;;
15451;SDS011;7827;53.594;9.938;2022-09-01T15:02:32;1.85;;;1.20;;
15451;SDS011;7827;53.594;9.938;2022-09-01T15:05:00;1.20;;;1.10;;
15451;SDS011;7827;53.594;9.938;2022-09-01T15:07:30;1.00;;;0.98;;
15451;SDS011;7827;53.594;9.938;2022-09-01T15:09:58;1.55;;;1.30;;
15451;SDS011;7827;53.594;9.938;2022-09-01T15:12:26;1.35;;;1.10;;
15451;SDS011;7827;53.594;9.938;2022-09-01T15:14:57;3.47;;;1.30;;
15451;SDS011;7827;53.594;9.938;2022-09-01T15:17:26;3.45;;;1.63;;
15451;SDS011;7827;53.594;9.938;2022-09-01T15:19:54;1.45;;;1.10;;
15451;SDS011;7827;53.594;9.938;2022-09-01T15:22:44;4.05;;;1.15;;
15451;SDS011;7827;53.594;9.938;2022-09-01T15:25:12;3.28;;;1.10;;
15451;SDS011;7827;53.594;9.938;2022-09-01T15:27:40;1.75;;;1.30;;
15451;SDS011;7827;53.594;9.938;2022-09-01T15:30:09;4.75;;;1.02;;
15451;SDS011;7827;53.594;9.938;2022-09-01T15:32:42;2.90;;;1.17;;
15451;SDS011;7827;53.594;9.938;2022-09-01T15:35:12;1.27;;;1.15;;
15451;SDS011;7827;53.594;9.938;2022-09-01T15:37:41;1.20;;;1.10;;
15451;SDS011;7827;53.594;9.938;2022-09-01T15:40:11;4.20;;;1.52;;
15451;SDS011;7827;53.594;9.938;2022-09-01T15:42:39;1.23;;;1.13;;
15451;SDS011;7827;53.594;9.938;2022-09-01T15:45:08;3.83;;;1.30;;
15451;SDS011;7827;53.594;9.938;2022-09-01T15:47:38;2.92;;;1.13;;
15451;SDS011;7827;53.594;9.938;2022-09-01T15:50:12;1.23;;;1.13;;
15451;SDS011;7827;53.594;9.938;2022-09-01T15:52:48;5.07;;;1.20;;
15451;SDS011;7827;53.594;9.938;2022-09-01T15:55:20;1.58;;;1.30;;
15451;SDS011;7827;53.594;9.938;2022-09-01T15:57:50;4.15;;;1.70;;